Airfield :
LOGIN :

Register | Disclaimer

   EN    FR    IT 

 










Legend :    VFR   Marginal VFR   IFR   Intensive IFR   Very Intensive IFR
Visi :
Ceiling :
>= 8 km
>= 3000ft
5 to 8 km
1000 to 3000 ft
1500m to 5 km
500 to 1000 ft
800 to 1500m
200 to 500 ft
< 800m
< 200 ft
Symbols :   Thunderstorms  Fog  Heavy snow  Heavy precipitations  Wind > 20 kt
SIGMETs :     Misc.  Thunderstorms  Icing  Turbulence  Mountain Waves  Volcanic Ashes






- Airport Elevation : 499 ft
- IATA code : TLS


LFBO - Toulouse / Blagnac

CURRENT METAR :
  • 161300Z AUTO 34008KT 250V020 CAVOK 26/14 Q1019 NOSIG

EXPIRED METARs :
  • 161230Z AUTO 03005KT 350V110 9999 FEW047 SCT058 26/14 Q1019 NOSIG
  • 161200Z AUTO 32007KT 290V020 9999 FEW045 BKN060 BKN240 25/14 Q1019 NOSIG
  • 161130Z AUTO 32009KT 9999 SCT043 OVC060 24/14 Q1020 NOSIG
  • 161100Z AUTO 32008KT 290V020 9999 BKN040 BKN046 BKN058 24/13 Q1020 NOSIG
  • 161030Z AUTO 33006KT 270V060 9999 BKN041 BKN052 24/14 Q1020 NOSIG
  • 161000Z AUTO 33007KT 270V060 9999 BKN039 BKN046 24/13 Q1020 NOSIG
  • 160930Z AUTO 36005KT 290V060 9999 SCT037 24/14 Q1020 NOSIG
  • 160900Z AUTO 35005KT 260V070 9999 BKN036 23/13 Q1020 NOSIG
  • 160830Z AUTO 02006KT 330V060 9999 FEW033 SCT066 23/13 Q1020 NOSIG
  • 160800Z AUTO 33005KT 280V030 9999 FEW030 OVC066 22/14 Q1020 NOSIG

TAF TAF LFBO
Valid from the 16 at 12:00 until the 17 at 18:00 UTC


161100Z 1612/1718 35006KT 9999 SCT050
FM170700 06005KT CAVOK
ATIS : +33 5 62 74 66 36



MET'MAP, your aeronautical weather chart ! - Copyright ORBIFLY December 2007 - Disclaimer

ORBIFLY MET'MAP TEAM :

Programming & Development : Alexandra Zaïnal
Original concept : Baudouin d'Aumeries
Technical & hardware support : Manuel Goepfert
Assistance : Marc-Olivier Méhu




SOURCES & CREDITS :

   NOAA